createdAt,value
2018-05-09T00:00:20.888Z,14.23
2018-05-09T00:01:20.868Z,13.99
2018-05-09T00:03:13.727Z,13.53
2018-05-09T00:04:13.698Z,13.38
2018-05-09T00:06:06.559Z,13.28
2018-05-09T00:07:06.531Z,13.19
2018-05-09T00:08:59.386Z,13.27
2018-05-09T00:09:59.364Z,13.19
2018-05-09T00:11:52.227Z,13.25
2018-05-09T00:12:52.196Z,13.11
2018-05-09T00:14:45.049Z,13.00
2018-05-09T00:15:45.029Z,12.90
2018-05-09T00:17:37.889Z,12.82
2018-05-09T00:18:37.860Z,12.85
2018-05-09T00:20:30.710Z,12.87
2018-05-09T00:21:30.689Z,12.76
2018-05-09T00:23:23.548Z,12.94
2018-05-09T00:24:23.518Z,12.87
2018-05-09T00:26:16.384Z,12.93
2018-05-09T00:27:16.350Z,12.95
2018-05-09T00:29:09.214Z,13.25
2018-05-09T00:30:09.193Z,13.01
2018-05-09T00:32:02.051Z,13.05
2018-05-09T00:33:02.025Z,13.00
2018-05-09T00:34:54.874Z,13.44
2018-05-09T00:35:54.853Z,13.46
2018-05-09T00:37:47.711Z,13.22
2018-05-09T00:38:47.687Z,13.28
2018-05-09T00:40:40.534Z,13.74
2018-05-09T00:41:40.543Z,13.83
2018-05-09T00:43:33.376Z,13.83
2018-05-09T00:44:33.353Z,14.07
2018-05-09T00:46:26.202Z,13.96
2018-05-09T00:47:26.177Z,14.25
2018-05-09T00:49:19.024Z,14.17
2018-05-09T00:50:19.007Z,14.25
2018-05-09T00:52:11.944Z,14.20
2018-05-09T00:53:11.838Z,14.25
2018-05-09T00:55:04.685Z,14.17
2018-05-09T00:56:04.667Z,14.17
2018-05-09T00:57:57.524Z,14.04
2018-05-09T00:58:57.496Z,13.78
2018-05-09T01:00:50.348Z,13.52
2018-05-09T01:01:50.328Z,13.42
2018-05-09T01:03:43.194Z,13.33
2018-05-09T01:04:43.167Z,13.31
2018-05-09T01:06:36.025Z,13.04
2018-05-09T01:07:35.997Z,13.15
2018-05-09T01:09:28.849Z,13.28
2018-05-09T01:10:28.829Z,13.16
2018-05-09T01:12:21.684Z,12.97
2018-05-09T01:13:21.665Z,13.01
2018-05-09T01:15:14.512Z,12.93
2018-05-09T01:16:14.493Z,12.80
2018-05-09T01:18:07.352Z,12.70
2018-05-09T01:19:07.324Z,12.55
2018-05-09T01:21:00.179Z,12.60
2018-05-09T01:22:00.155Z,12.55
2018-05-09T01:23:53.017Z,12.36
2018-05-09T01:24:52.989Z,12.35
2018-05-09T01:26:45.845Z,12.29
2018-05-09T01:27:45.818Z,12.25
2018-05-09T01:29:38.666Z,12.29
2018-05-09T01:30:38.648Z,12.17
2018-05-09T01:32:31.505Z,12.17
2018-05-09T01:33:31.475Z,12.15
2018-05-09T01:35:24.342Z,12.15
2018-05-09T01:36:24.322Z,12.18
2018-05-09T01:38:17.172Z,12.21
2018-05-09T01:39:17.148Z,12.12
2018-05-09T01:41:10.000Z,12.18
2018-05-09T01:42:09.979Z,12.21
2018-05-09T01:44:02.837Z,12.15
2018-05-09T01:45:02.810Z,12.17
2018-05-09T01:46:55.665Z,12.20
2018-05-09T01:47:55.638Z,12.13
2018-05-09T01:49:48.488Z,12.17
2018-05-09T01:50:48.465Z,12.17
2018-05-09T01:52:41.824Z,12.27
2018-05-09T01:53:41.797Z,12.24
2018-05-09T01:55:34.649Z,12.17
2018-05-09T01:56:34.629Z,12.13
2018-05-09T01:58:27.484Z,12.20
2018-05-09T01:59:27.457Z,12.12
2018-05-09T02:01:20.322Z,11.95
2018-05-09T02:02:20.290Z,12.45
2018-05-09T02:04:13.148Z,12.49
2018-05-09T02:05:13.122Z,12.31
2018-05-09T02:07:05.978Z,12.27
2018-05-09T02:08:05.950Z,12.17
2018-05-09T02:09:58.813Z,12.18
2018-05-09T02:10:58.775Z,12.20
2018-05-09T02:12:51.633Z,12.09
2018-05-09T02:13:51.605Z,12.00
2018-05-09T02:15:44.459Z,11.80
2018-05-09T02:16:44.436Z,11.78
2018-05-09T02:18:37.290Z,11.99
2018-05-09T02:19:37.263Z,12.15
2018-05-09T02:21:30.121Z,12.03
2018-05-09T02:22:30.092Z,12.12
2018-05-09T02:24:22.938Z,11.91
2018-05-09T02:25:22.918Z,11.99
2018-05-09T02:27:15.777Z,12.29
2018-05-09T02:28:15.746Z,12.28
2018-05-09T02:30:08.598Z,12.35
2018-05-09T02:31:08.654Z,12.32
2018-05-09T02:33:01.430Z,12.45
2018-05-09T02:34:01.404Z,12.28
2018-05-09T02:35:54.253Z,12.29
2018-05-09T02:36:54.233Z,12.28
2018-05-09T02:38:47.086Z,12.20
2018-05-09T02:39:47.061Z,12.17
2018-05-09T02:41:39.917Z,12.61
2018-05-09T02:42:39.889Z,12.27
2018-05-09T02:44:32.742Z,12.49
2018-05-09T02:45:32.726Z,12.25
2018-05-09T02:47:25.576Z,12.29
2018-05-09T02:48:25.550Z,12.18
2018-05-09T02:50:18.402Z,12.13
2018-05-09T02:51:18.378Z,12.03
2018-05-09T02:53:11.237Z,11.90
2018-05-09T02:54:11.210Z,11.90
2018-05-09T02:56:04.060Z,12.31
2018-05-09T02:57:04.043Z,12.15
2018-05-09T02:58:56.893Z,11.75
2018-05-09T02:59:56.868Z,11.75
2018-05-09T03:01:49.727Z,12.09
2018-05-09T03:02:49.697Z,11.99
2018-05-09T03:04:42.554Z,11.97
2018-05-09T03:05:42.529Z,12.22
2018-05-09T03:07:35.382Z,12.43
2018-05-09T03:08:35.354Z,12.45
2018-05-09T03:10:28.203Z,12.39
2018-05-09T03:11:28.186Z,12.35
2018-05-09T03:13:21.039Z,12.79
2018-05-09T03:14:21.011Z,12.91
2018-05-09T03:16:13.860Z,12.47
2018-05-09T03:17:13.839Z,12.36
2018-05-09T03:19:06.699Z,12.29
2018-05-09T03:20:06.671Z,12.29
2018-05-09T03:21:59.529Z,12.45
2018-05-09T03:22:59.499Z,12.29
2018-05-09T03:24:52.351Z,12.27
2018-05-09T03:25:52.329Z,12.20
2018-05-09T03:27:45.184Z,12.13
2018-05-09T03:28:45.157Z,12.07
2018-05-09T03:30:38.005Z,12.18
2018-05-09T03:31:37.986Z,12.32
2018-05-09T03:33:30.840Z,12.20
2018-05-09T03:34:30.811Z,12.28
2018-05-09T03:36:23.663Z,12.27
2018-05-09T03:37:23.649Z,12.24
2018-05-09T03:39:16.500Z,12.42
2018-05-09T03:40:16.471Z,12.28
2018-05-09T03:42:09.329Z,12.46
2018-05-09T03:43:09.300Z,12.18
2018-05-09T03:45:02.228Z,12.49
2018-05-09T03:46:02.131Z,12.29
2018-05-09T03:47:54.986Z,12.55
2018-05-09T03:48:54.959Z,12.39
2018-05-09T03:50:47.808Z,12.49
2018-05-09T03:51:47.788Z,12.46
2018-05-09T03:53:40.647Z,12.64
2018-05-09T03:54:40.618Z,12.49
2018-05-09T03:56:33.472Z,12.45
2018-05-09T03:57:33.450Z,12.47
2018-05-09T03:59:26.309Z,12.46
2018-05-09T04:00:26.279Z,12.57
2018-05-09T04:02:19.133Z,12.36
2018-05-09T04:03:19.109Z,12.42
2018-05-09T04:05:11.956Z,12.62
2018-05-09T04:06:11.935Z,12.60
2018-05-09T04:08:04.869Z,12.47
2018-05-09T04:09:04.766Z,12.83
2018-05-09T04:10:57.617Z,13.31
2018-05-09T04:11:57.596Z,13.08
2018-05-09T04:13:50.452Z,12.94
2018-05-09T04:14:50.454Z,12.78
2018-05-09T04:16:43.275Z,12.68
2018-05-09T04:17:43.256Z,12.90
2018-05-09T04:19:36.115Z,13.03
2018-05-09T04:20:36.094Z,12.93
2018-05-09T04:22:28.934Z,13.00
2018-05-09T04:23:28.914Z,13.22
2018-05-09T04:25:21.771Z,13.96
2018-05-09T04:26:21.741Z,14.37
2018-05-09T04:28:14.603Z,14.68
2018-05-09T04:29:14.577Z,15.04
2018-05-09T04:31:07.428Z,15.39
2018-05-09T04:32:07.407Z,15.35
2018-05-09T04:34:00.268Z,15.55
2018-05-09T04:35:00.241Z,15.44
2018-05-09T04:36:53.092Z,15.98
2018-05-09T04:37:53.072Z,16.28
2018-05-09T04:39:45.932Z,16.89
2018-05-09T04:40:45.905Z,16.86
2018-05-09T04:42:38.759Z,16.57
2018-05-09T04:43:38.740Z,16.81
2018-05-09T04:45:31.660Z,16.35
2018-05-09T04:46:31.578Z,16.56
2018-05-09T04:48:24.456Z,16.75
2018-05-09T04:49:24.425Z,16.58
2018-05-09T04:51:17.267Z,16.84
2018-05-09T04:52:17.256Z,16.89
2018-05-09T04:54:10.119Z,17.23
2018-05-09T04:55:10.093Z,17.08
2018-05-09T04:57:02.952Z,16.93
2018-05-09T04:58:02.934Z,17.02
2018-05-09T04:59:55.800Z,17.44
2018-05-09T05:00:55.775Z,17.45
2018-05-09T05:02:48.635Z,17.39
2018-05-09T05:03:48.618Z,17.44
2018-05-09T05:05:41.489Z,17.36
2018-05-09T05:06:41.468Z,17.26
2018-05-09T05:08:34.343Z,17.59
2018-05-09T05:09:34.320Z,17.80
2018-05-09T05:11:27.181Z,18.04
2018-05-09T05:12:27.167Z,18.20
2018-05-09T05:14:20.035Z,18.65
2018-05-09T05:15:20.011Z,18.55
2018-05-09T05:17:12.875Z,18.53
2018-05-09T05:18:12.867Z,18.31
2018-05-09T05:20:05.735Z,18.34
2018-05-09T05:21:05.711Z,18.81
2018-05-09T05:22:58.581Z,19.88
2018-05-09T05:23:58.557Z,20.00
2018-05-09T05:25:51.423Z,20.43
2018-05-09T05:26:51.411Z,20.65
2018-05-09T05:28:44.282Z,20.72
2018-05-09T05:29:44.262Z,21.46
2018-05-09T05:31:37.128Z,22.81
2018-05-09T05:32:37.115Z,23.66
2018-05-09T05:34:29.995Z,22.80
2018-05-09T05:35:29.971Z,22.28
2018-05-09T05:37:22.847Z,23.00
2018-05-09T05:38:22.830Z,22.50
2018-05-09T05:40:15.708Z,21.76
2018-05-09T05:41:15.685Z,22.35
2018-05-09T05:43:08.727Z,21.96
2018-05-09T05:44:08.707Z,21.67
2018-05-09T05:46:01.577Z,21.89
2018-05-09T05:47:01.569Z,21.64
2018-05-09T05:48:54.446Z,21.93
2018-05-09T05:49:54.473Z,21.61
2018-05-09T05:51:47.295Z,22.75
2018-05-09T05:52:47.284Z,22.50
2018-05-09T05:54:40.164Z,22.51
2018-05-09T05:55:40.143Z,23.15
2018-05-09T05:57:33.026Z,24.39
2018-05-09T05:58:33.017Z,24.23
2018-05-09T06:00:25.896Z,23.39
2018-05-09T06:01:25.877Z,25.17
2018-05-09T06:03:18.756Z,24.77
2018-05-09T06:04:18.739Z,26.44
2018-05-09T06:06:11.616Z,25.41
2018-05-09T06:07:11.604Z,25.93
2018-05-09T06:09:04.490Z,25.25
2018-05-09T06:10:04.475Z,25.88
2018-05-09T06:11:57.348Z,25.90
2018-05-09T06:12:57.344Z,24.53
2018-05-09T06:14:50.232Z,25.58
2018-05-09T06:15:50.207Z,24.05
2018-05-09T06:17:43.082Z,23.95
2018-05-09T06:18:43.069Z,24.50
2018-05-09T06:20:35.949Z,24.14
2018-05-09T06:21:35.932Z,24.02
2018-05-09T06:23:28.813Z,21.61
2018-05-09T06:24:28.796Z,21.89
2018-05-09T06:26:21.673Z,21.50
2018-05-09T06:27:21.661Z,21.91
2018-05-09T06:29:14.541Z,21.24
2018-05-09T06:30:14.526Z,21.40
2018-05-09T06:32:07.395Z,21.21
2018-05-09T06:33:07.384Z,20.93
2018-05-09T06:35:00.273Z,21.91
2018-05-09T06:36:00.251Z,21.95
2018-05-09T06:37:53.118Z,21.02
2018-05-09T06:38:53.109Z,21.51
2018-05-09T06:40:45.986Z,21.37
2018-05-09T06:41:46.057Z,21.37
2018-05-09T06:43:38.908Z,20.82
2018-05-09T06:44:38.829Z,21.05
2018-05-09T06:46:31.698Z,21.00
2018-05-09T06:47:31.688Z,20.75
2018-05-09T06:49:24.565Z,20.59
2018-05-09T06:50:24.547Z,20.93
2018-05-09T06:52:17.414Z,21.05
2018-05-09T06:53:17.404Z,21.43
2018-05-09T06:55:10.277Z,20.90
2018-05-09T06:56:10.257Z,20.75
2018-05-09T06:58:03.130Z,21.57
2018-05-09T06:59:03.197Z,21.18
2018-05-09T07:00:56.059Z,20.51
2018-05-09T07:01:55.971Z,20.92
2018-05-09T07:03:48.847Z,20.93
2018-05-09T07:04:48.830Z,21.22
2018-05-09T07:06:41.878Z,21.93
2018-05-09T07:07:41.688Z,22.23
2018-05-09T07:09:34.570Z,21.92
2018-05-09T07:10:34.545Z,21.30
2018-05-09T07:12:27.473Z,22.29
2018-05-09T07:13:27.402Z,22.36
2018-05-09T07:15:20.288Z,22.75
2018-05-09T07:16:20.265Z,22.18
2018-05-09T07:18:13.140Z,22.72
2018-05-09T07:19:13.129Z,23.39
2018-05-09T07:21:06.012Z,24.16
2018-05-09T07:22:05.994Z,24.40
2018-05-09T07:23:58.873Z,23.96
2018-05-09T07:24:58.857Z,24.80
2018-05-09T07:26:51.735Z,25.13
2018-05-09T07:27:51.726Z,25.98
2018-05-09T07:29:44.611Z,23.40
2018-05-09T07:30:44.599Z,23.08
2018-05-09T07:32:37.475Z,24.26
2018-05-09T07:33:37.463Z,23.34
2018-05-09T07:35:30.439Z,23.40
2018-05-09T07:36:30.341Z,23.74
2018-05-09T07:38:23.220Z,23.73
2018-05-09T07:39:23.208Z,23.96
2018-05-09T07:41:16.086Z,25.72
2018-05-09T07:42:16.114Z,23.84
2018-05-09T07:44:08.962Z,25.60
2018-05-09T07:45:08.948Z,25.93
2018-05-09T07:47:01.825Z,24.10
2018-05-09T07:48:01.820Z,24.43
2018-05-09T07:49:54.715Z,24.57
2018-05-09T07:50:54.693Z,24.08
2018-05-09T07:52:47.568Z,23.83
2018-05-09T07:53:47.556Z,23.39
2018-05-09T07:55:40.499Z,22.81
2018-05-09T07:56:40.424Z,24.16
2018-05-09T07:58:33.386Z,24.58
2018-05-09T07:59:33.294Z,24.78
2018-05-09T08:01:26.180Z,25.29
2018-05-09T08:02:26.168Z,24.91
2018-05-09T08:04:19.072Z,25.91
2018-05-09T08:05:19.056Z,25.31
2018-05-09T08:07:11.933Z,24.57
2018-05-09T08:08:11.926Z,24.18
2018-05-09T08:10:04.810Z,24.70
2018-05-09T08:11:04.797Z,24.02
2018-05-09T08:12:57.825Z,23.95
2018-05-09T08:13:57.668Z,24.76
2018-05-09T08:15:50.556Z,24.11
2018-05-09T08:16:50.540Z,23.61
2018-05-09T08:18:44.431Z,24.18
2018-05-09T08:19:44.407Z,24.42
2018-05-09T08:21:37.287Z,25.60
2018-05-09T08:22:37.279Z,25.28
2018-05-09T08:24:30.164Z,26.05
2018-05-09T08:25:30.150Z,25.36
2018-05-09T08:27:23.028Z,25.75
2018-05-09T08:28:23.022Z,25.83
2018-05-09T08:30:15.966Z,25.35
2018-05-09T08:31:15.896Z,24.14
2018-05-09T08:33:08.776Z,25.43
2018-05-09T08:34:08.769Z,26.37
2018-05-09T08:36:01.664Z,24.55
2018-05-09T08:37:01.649Z,24.50
2018-05-09T08:38:54.538Z,26.03
2018-05-09T08:39:54.526Z,26.41
2018-05-09T08:41:47.416Z,27.59
2018-05-09T08:42:47.407Z,26.89
2018-05-09T08:44:40.295Z,25.60
2018-05-09T08:45:40.283Z,26.65
2018-05-09T08:47:33.169Z,26.97
2018-05-09T08:48:33.166Z,27.63
2018-05-09T08:50:26.054Z,25.59
2018-05-09T08:51:26.041Z,25.59
2018-05-09T08:53:18.924Z,25.59
2018-05-09T08:54:18.919Z,25.98
2018-05-09T08:56:11.819Z,26.07
2018-05-09T08:57:11.804Z,26.89
2018-05-09T08:59:04.695Z,25.80
2018-05-09T09:00:04.691Z,25.48
2018-05-09T09:01:57.567Z,26.22
2018-05-09T09:02:57.565Z,25.95
2018-05-09T09:04:50.453Z,25.17
2018-05-09T09:05:50.447Z,26.07
2018-05-09T09:07:43.329Z,25.99
2018-05-09T09:08:43.325Z,26.62
2018-05-09T09:10:36.217Z,27.40
2018-05-09T09:11:36.205Z,27.21
2018-05-09T09:13:29.090Z,28.19
2018-05-09T09:14:29.088Z,26.80
2018-05-09T09:16:21.977Z,25.07
2018-05-09T09:17:21.964Z,27.29
2018-05-09T09:19:14.859Z,26.77
2018-05-09T09:20:14.847Z,25.63
2018-05-09T09:22:07.734Z,25.22
2018-05-09T09:23:07.730Z,25.10
2018-05-09T09:25:00.620Z,25.21
2018-05-09T09:26:00.609Z,26.56
2018-05-09T09:27:53.490Z,25.83
2018-05-09T09:28:53.484Z,26.33
2018-05-09T09:30:46.375Z,25.87
2018-05-09T09:31:46.364Z,26.65
2018-05-09T09:33:39.252Z,26.89
2018-05-09T09:34:39.244Z,28.04
2018-05-09T09:36:32.122Z,28.33
2018-05-09T09:37:32.118Z,29.07
2018-05-09T09:39:25.012Z,27.54
2018-05-09T09:40:25.003Z,27.08
2018-05-09T09:42:17.887Z,27.21
2018-05-09T09:43:17.881Z,26.70
2018-05-09T09:45:10.773Z,26.55
2018-05-09T09:46:10.763Z,25.90
2018-05-09T09:48:03.643Z,26.23
2018-05-09T09:49:03.641Z,27.36
2018-05-09T09:50:56.534Z,26.52
2018-05-09T09:51:56.521Z,27.10
2018-05-09T09:53:49.420Z,27.73
2018-05-09T09:54:49.409Z,28.11
2018-05-09T09:56:42.296Z,25.83
2018-05-09T09:57:42.293Z,27.89
2018-05-09T09:59:35.190Z,27.14
2018-05-09T10:00:35.179Z,26.99
2018-05-09T10:02:28.063Z,28.38
2018-05-09T10:03:28.060Z,28.52
2018-05-09T10:05:20.960Z,27.48
2018-05-09T10:06:20.944Z,26.75
2018-05-09T10:08:13.829Z,26.73
2018-05-09T10:09:13.828Z,27.51
2018-05-09T10:11:06.732Z,28.30
2018-05-09T10:12:06.716Z,28.93
2018-05-09T10:13:59.612Z,26.21
2018-05-09T10:14:59.630Z,27.45
2018-05-09T10:16:52.565Z,27.74
2018-05-09T10:17:52.484Z,27.02
2018-05-09T10:19:45.386Z,26.99
2018-05-09T10:20:45.376Z,28.41
2018-05-09T10:22:38.262Z,28.93
2018-05-09T10:23:38.257Z,29.04
2018-05-09T10:25:31.152Z,29.08
2018-05-09T10:26:31.140Z,29.66
2018-05-09T10:28:24.035Z,29.53
2018-05-09T10:29:24.030Z,29.76
2018-05-09T10:31:16.930Z,30.10
2018-05-09T10:32:16.921Z,31.74
2018-05-09T10:34:09.815Z,30.48
2018-05-09T10:35:09.805Z,30.46
2018-05-09T10:37:02.699Z,30.50
2018-05-09T10:38:02.703Z,30.69
2018-05-09T10:39:55.595Z,32.77
2018-05-09T10:40:55.581Z,32.36
2018-05-09T10:42:48.543Z,31.14
2018-05-09T10:43:48.985Z,30.78
2018-05-09T10:45:41.389Z,30.10
2018-05-09T10:46:41.379Z,30.15
2018-05-09T10:48:34.266Z,29.94
2018-05-09T10:49:34.266Z,29.75
2018-05-09T10:51:27.164Z,28.56
2018-05-09T10:52:27.155Z,28.78
2018-05-09T10:54:20.057Z,26.78
2018-05-09T10:55:20.041Z,27.78
2018-05-09T10:57:12.991Z,27.95
2018-05-09T10:58:12.927Z,29.72
2018-05-09T11:00:05.819Z,28.49
2018-05-09T11:01:05.810Z,29.29
2018-05-09T11:02:58.762Z,29.63
2018-05-09T11:03:59.336Z,30.78
2018-05-09T11:05:51.598Z,31.22
2018-05-09T11:06:51.589Z,28.75
2018-05-09T11:08:44.472Z,30.15
2018-05-09T11:09:44.475Z,29.87
2018-05-09T11:11:37.374Z,29.45
2018-05-09T11:12:37.365Z,30.65
2018-05-09T11:14:30.267Z,30.35
2018-05-09T11:15:30.248Z,29.57
2018-05-09T11:17:23.144Z,31.09
2018-05-09T11:18:23.145Z,29.81
2018-05-09T11:20:16.041Z,29.75
2018-05-09T11:21:16.028Z,30.18
2018-05-09T11:23:08.914Z,28.70
2018-05-09T11:24:08.914Z,27.68
2018-05-09T11:26:01.807Z,28.49
2018-05-09T11:27:01.801Z,27.90
2018-05-09T11:28:54.775Z,28.30
2018-05-09T11:29:54.678Z,28.08
2018-05-09T11:31:47.576Z,31.22
2018-05-09T11:32:47.565Z,31.51
2018-05-09T11:34:40.459Z,27.47
2018-05-09T11:35:40.448Z,26.89
2018-05-09T11:37:33.331Z,27.78
2018-05-09T11:38:33.326Z,28.37
2018-05-09T11:40:26.225Z,29.01
2018-05-09T11:41:26.212Z,27.26
2018-05-09T11:43:19.093Z,25.60
2018-05-09T11:44:19.093Z,25.90
2018-05-09T11:46:11.978Z,26.29
2018-05-09T11:47:11.964Z,26.99
2018-05-09T11:49:04.861Z,26.83
2018-05-09T11:50:04.837Z,27.30
2018-05-09T11:51:57.717Z,26.68
2018-05-09T11:52:57.710Z,26.18
2018-05-09T11:54:50.598Z,27.40
2018-05-09T11:55:50.581Z,28.14
2018-05-09T11:57:43.461Z,28.75
2018-05-09T11:58:43.451Z,28.04
2018-05-09T12:00:36.340Z,27.32
2018-05-09T12:01:36.326Z,27.73
2018-05-09T12:03:29.207Z,28.02
2018-05-09T12:04:29.204Z,28.23
2018-05-09T12:06:22.094Z,29.34
2018-05-09T12:07:22.074Z,30.63
2018-05-09T12:09:14.967Z,30.24
2018-05-09T12:10:15.033Z,30.47
2018-05-09T12:12:07.852Z,29.76
2018-05-09T12:13:07.849Z,29.56
2018-05-09T12:15:00.737Z,30.24
2018-05-09T12:16:00.726Z,30.35
2018-05-09T12:17:53.610Z,30.47
2018-05-09T12:18:53.607Z,30.46
2018-05-09T12:20:46.493Z,28.85
2018-05-09T12:21:46.480Z,29.63
2018-05-09T12:23:39.355Z,29.39
2018-05-09T12:24:39.383Z,29.73
2018-05-09T12:26:32.246Z,29.60
2018-05-09T12:27:32.232Z,28.72
2018-05-09T12:29:25.127Z,29.19
2018-05-09T12:30:25.114Z,28.17
2018-05-09T12:32:17.993Z,27.29
2018-05-09T12:33:17.989Z,26.90
2018-05-09T12:35:10.875Z,27.35
2018-05-09T12:36:10.863Z,26.95
2018-05-09T12:38:03.737Z,26.81
2018-05-09T12:39:03.730Z,27.51
2018-05-09T12:40:56.614Z,28.52
2018-05-09T12:41:56.602Z,28.33
2018-05-09T12:43:49.480Z,29.51
2018-05-09T12:44:49.473Z,28.25
2018-05-09T12:46:42.362Z,29.04
2018-05-09T12:47:42.349Z,29.17
2018-05-09T12:49:35.240Z,28.86
2018-05-09T12:50:35.226Z,28.69
2018-05-09T12:52:28.107Z,30.32
2018-05-09T12:53:28.107Z,30.35
2018-05-09T12:55:20.996Z,29.76
2018-05-09T12:56:20.983Z,29.65
2018-05-09T12:58:13.869Z,29.57
2018-05-09T12:59:13.861Z,29.35
2018-05-09T13:01:06.747Z,29.90
2018-05-09T13:02:06.735Z,28.81
2018-05-09T13:03:59.621Z,27.29
2018-05-09T13:04:59.610Z,27.12
2018-05-09T13:06:52.500Z,27.12
2018-05-09T13:07:52.505Z,27.52
2018-05-09T13:09:45.368Z,28.00
2018-05-09T13:10:45.355Z,29.07
2018-05-09T13:12:38.237Z,27.67
2018-05-09T13:13:38.232Z,27.02
2018-05-09T13:15:31.112Z,27.65
2018-05-09T13:16:31.097Z,28.17
2018-05-09T13:18:23.974Z,28.17
2018-05-09T13:19:23.965Z,27.33
2018-05-09T13:21:16.853Z,27.83
2018-05-09T13:22:16.843Z,28.56
2018-05-09T13:24:09.719Z,28.00
2018-05-09T13:25:09.713Z,29.13
2018-05-09T13:27:02.605Z,29.75
2018-05-09T13:28:02.584Z,28.27
2018-05-09T13:29:55.471Z,27.20
2018-05-09T13:30:55.456Z,27.51
2018-05-09T13:32:48.340Z,27.42
2018-05-09T13:33:48.329Z,28.33
2018-05-09T13:35:41.214Z,27.26
2018-05-09T13:36:41.198Z,27.73
2018-05-09T13:38:34.076Z,28.05
2018-05-09T13:39:34.069Z,28.37
2018-05-09T13:41:26.961Z,29.32
2018-05-09T13:42:26.938Z,28.91
2018-05-09T13:44:19.820Z,29.20
2018-05-09T13:45:19.817Z,28.88
2018-05-09T13:47:12.700Z,27.80
2018-05-09T13:48:12.686Z,28.42
2018-05-09T13:50:05.566Z,27.85
2018-05-09T13:51:05.553Z,28.10
2018-05-09T13:52:58.428Z,26.73
2018-05-09T13:53:58.449Z,27.51
2018-05-09T13:55:51.305Z,27.32
2018-05-09T13:56:51.289Z,27.30
2018-05-09T13:58:44.174Z,27.47
2018-05-09T13:59:44.160Z,27.78
2018-05-09T14:01:37.045Z,28.08
2018-05-09T14:02:37.029Z,28.41
2018-05-09T14:04:29.912Z,29.13
2018-05-09T14:05:29.901Z,28.72
2018-05-09T14:07:22.787Z,29.39
2018-05-09T14:08:22.797Z,28.79
2018-05-09T14:10:15.653Z,29.20
2018-05-09T14:11:15.642Z,29.14
2018-05-09T14:13:08.519Z,29.38
2018-05-09T14:14:08.513Z,28.75
2018-05-09T14:16:01.409Z,29.20
2018-05-09T14:17:01.394Z,29.12
2018-05-09T14:18:54.272Z,29.59
2018-05-09T14:19:54.263Z,28.70
2018-05-09T14:21:47.146Z,27.65
2018-05-09T14:22:47.136Z,26.93
2018-05-09T14:24:40.012Z,27.73
2018-05-09T14:25:40.004Z,27.15
2018-05-09T14:27:32.884Z,27.14
2018-05-09T14:28:32.870Z,27.30
2018-05-09T14:30:25.823Z,27.33
2018-05-09T14:31:25.735Z,27.85
2018-05-09T14:33:18.600Z,27.39
2018-05-09T14:34:18.601Z,27.08
2018-05-09T14:36:11.484Z,27.14
2018-05-09T14:37:11.471Z,27.47
2018-05-09T14:39:04.344Z,27.39
2018-05-09T14:40:04.345Z,27.86
2018-05-09T14:41:57.220Z,27.14
2018-05-09T14:42:57.203Z,26.73
2018-05-09T14:44:50.090Z,27.18
2018-05-09T14:45:50.067Z,26.99
2018-05-09T14:47:42.941Z,28.02
2018-05-09T14:48:42.929Z,27.87
2018-05-09T14:50:35.811Z,27.27
2018-05-09T14:51:35.793Z,27.74
2018-05-09T14:53:28.671Z,26.99
2018-05-09T14:54:28.668Z,26.73
2018-05-09T14:56:21.545Z,27.25
2018-05-09T14:57:21.529Z,27.11
2018-05-09T14:59:14.400Z,26.63
2018-05-09T15:00:14.423Z,26.62
2018-05-09T15:02:07.275Z,26.07
2018-05-09T15:03:07.283Z,26.07
2018-05-09T15:05:00.133Z,26.55
2018-05-09T15:06:00.115Z,26.53
2018-05-09T15:07:52.989Z,26.95
2018-05-09T15:08:52.987Z,27.20
2018-05-09T15:10:45.859Z,27.14
2018-05-09T15:11:45.840Z,26.81
2018-05-09T15:13:38.712Z,27.22
2018-05-09T15:14:38.700Z,27.54
2018-05-09T15:16:31.578Z,27.00
2018-05-09T15:17:31.566Z,26.60
2018-05-09T15:19:24.443Z,26.34
2018-05-09T15:20:24.426Z,27.32
2018-05-09T15:22:17.313Z,26.53
2018-05-09T15:23:17.283Z,26.59
2018-05-09T15:25:10.161Z,26.66
2018-05-09T15:26:10.144Z,26.90
2018-05-09T15:28:03.012Z,26.85
2018-05-09T15:29:03.002Z,26.65
2018-05-09T15:30:55.877Z,26.99
2018-05-09T15:31:55.858Z,26.53
2018-05-09T15:33:48.725Z,26.56
2018-05-09T15:34:48.715Z,26.63
2018-05-09T15:36:41.602Z,26.73
2018-05-09T15:37:41.584Z,26.78
2018-05-09T15:39:34.458Z,26.56
2018-05-09T15:40:34.441Z,26.15
2018-05-09T15:42:27.320Z,26.31
2018-05-09T15:43:27.297Z,26.34
2018-05-09T15:45:20.176Z,26.16
2018-05-09T15:46:20.169Z,26.00
2018-05-09T15:48:13.024Z,25.87
2018-05-09T15:49:13.011Z,25.70
2018-05-09T15:51:05.888Z,26.00
2018-05-09T15:52:05.882Z,26.28
2018-05-09T15:53:58.737Z,25.83
2018-05-09T15:54:58.727Z,26.16
2018-05-09T15:56:51.610Z,25.80
2018-05-09T15:57:51.581Z,25.75
2018-05-09T15:59:44.448Z,25.33
2018-05-09T16:00:44.438Z,25.38
2018-05-09T16:02:37.313Z,25.31
2018-05-09T16:03:37.294Z,25.21
2018-05-09T16:05:30.176Z,25.58
2018-05-09T16:06:30.155Z,25.40
2018-05-09T16:08:23.102Z,25.31
2018-05-09T16:09:23.009Z,25.33
2018-05-09T16:11:15.887Z,25.51
2018-05-09T16:12:15.871Z,25.35
2018-05-09T16:14:08.739Z,25.31
2018-05-09T16:15:08.726Z,25.38
2018-05-09T16:17:01.633Z,25.32
2018-05-09T16:18:01.616Z,25.41
2018-05-09T16:19:54.480Z,25.36
2018-05-09T16:20:54.469Z,25.35
2018-05-09T16:22:47.375Z,25.33
2018-05-09T16:23:47.333Z,25.43
2018-05-09T16:25:40.201Z,25.25
2018-05-09T16:26:40.180Z,25.21
2018-05-09T16:28:33.046Z,25.50
2018-05-09T16:29:33.034Z,25.59
2018-05-09T16:31:25.913Z,25.47
2018-05-09T16:32:25.893Z,25.53
2018-05-09T16:34:18.761Z,25.36
2018-05-09T16:35:18.748Z,25.43
2018-05-09T16:37:11.625Z,25.38
2018-05-09T16:38:11.596Z,25.59
2018-05-09T16:40:04.467Z,25.62
2018-05-09T16:41:04.454Z,25.59
2018-05-09T16:42:57.338Z,25.43
2018-05-09T16:43:57.315Z,25.43
2018-05-09T16:45:50.190Z,25.48
2018-05-09T16:46:50.171Z,25.54
2018-05-09T16:48:43.035Z,25.40
2018-05-09T16:49:43.024Z,25.46
2018-05-09T16:51:35.894Z,25.32
2018-05-09T16:52:35.878Z,25.35
2018-05-09T16:54:28.742Z,25.35
2018-05-09T16:55:28.727Z,25.29
2018-05-09T16:57:21.602Z,25.22
2018-05-09T16:58:21.584Z,25.41
2018-05-09T17:00:14.476Z,25.33
2018-05-09T17:01:14.439Z,25.33
2018-05-09T17:03:07.311Z,25.26
2018-05-09T17:04:07.290Z,25.22
2018-05-09T17:06:00.162Z,25.26
2018-05-09T17:07:00.165Z,25.22
2018-05-09T17:08:53.011Z,25.01
2018-05-09T17:09:52.999Z,25.03
2018-05-09T17:11:45.872Z,25.21
2018-05-09T17:12:45.849Z,25.11
2018-05-09T17:14:38.717Z,25.14
2018-05-09T17:15:38.706Z,25.11
2018-05-09T17:17:31.584Z,25.13
2018-05-09T17:18:31.560Z,25.07
2018-05-09T17:20:24.430Z,24.93
2018-05-09T17:21:24.418Z,24.92
2018-05-09T17:23:17.298Z,25.04
2018-05-09T17:24:17.272Z,24.93
2018-05-09T17:26:10.146Z,24.84
2018-05-09T17:27:10.124Z,24.92
2018-05-09T17:29:02.992Z,24.86
2018-05-09T17:30:02.976Z,24.80
2018-05-09T17:31:55.852Z,24.80
2018-05-09T17:32:55.832Z,24.66
2018-05-09T17:34:48.698Z,24.61
2018-05-09T17:35:48.683Z,24.58
2018-05-09T17:37:41.554Z,24.51
2018-05-09T17:38:41.547Z,24.51
2018-05-09T17:40:34.419Z,24.50
2018-05-09T17:41:34.398Z,24.50
2018-05-09T17:43:27.264Z,24.55
2018-05-09T17:44:27.291Z,24.47
2018-05-09T17:46:20.119Z,24.42
2018-05-09T17:47:20.097Z,24.47
2018-05-09T17:49:12.963Z,24.28
2018-05-09T17:50:12.947Z,24.35
2018-05-09T17:52:05.818Z,24.38
2018-05-09T17:53:05.888Z,24.24
2018-05-09T17:54:58.663Z,24.23
2018-05-09T17:55:58.650Z,24.20
2018-05-09T17:57:51.526Z,24.10
2018-05-09T17:58:51.501Z,24.24
2018-05-09T18:00:44.373Z,24.05
2018-05-09T18:01:44.355Z,24.02
2018-05-09T18:03:37.219Z,23.98
2018-05-09T18:04:37.205Z,23.98
2018-05-09T18:06:30.080Z,23.86
2018-05-09T18:07:30.095Z,23.91
2018-05-09T18:09:22.928Z,23.77
2018-05-09T18:10:22.923Z,23.76
2018-05-09T18:12:15.779Z,23.78
2018-05-09T18:13:15.759Z,23.68
2018-05-09T18:15:08.621Z,23.58
2018-05-09T18:16:08.650Z,23.58
2018-05-09T18:18:01.509Z,23.50
2018-05-09T18:19:01.476Z,23.43
2018-05-09T18:20:54.347Z,23.27
2018-05-09T18:21:54.327Z,23.12
2018-05-09T18:23:47.188Z,23.09
2018-05-09T18:24:47.184Z,22.98
2018-05-09T18:26:40.066Z,22.84
2018-05-09T18:27:40.031Z,22.88
2018-05-09T18:29:32.892Z,22.76
2018-05-09T18:30:32.882Z,22.70
2018-05-09T18:32:25.846Z,22.72